Prudhoe Bay, Alaska
Current Conditions -  °F | °C
As of 10:53 PM on Saturday 25 Oct 2014 (Local Time) from PASC Reporting Station
Few Clouds Few Clouds  
Wind Chill: -21°   Ceiling: Unl
Heat Index: -12°   Visibility: 10mi
Dew Point: -16°   Wind: 13mph
Humidity: 73%   Direction: 130°SE
Pressure: 29.67"   Gusts: NA
Location:  70.28°N, 148.38°W
Report Text: PASC 260653Z 13011KT 10SM FEW080 M12/M16 A2967 RMK AO2 SLP050 T11221161
Loading
Personal Weather Stations






























Interactive Weather Map
Tropical Storm Tracking
New forecast layout! Learn more

10-Day Weather Forecast

Advertisements
Track Severe Weather on mobile